createdAt,value
2017-09-05T00:00:39.146Z,76.6
2017-09-05T00:02:00.643Z,77.2
2017-09-05T00:03:02.049Z,77.5
2017-09-05T00:04:23.561Z,77.6
2017-09-05T00:05:24.964Z,77.7
2017-09-05T00:06:46.457Z,77.2
2017-09-05T00:07:47.859Z,77.1
2017-09-05T00:09:09.376Z,77.3
2017-09-05T00:10:10.782Z,77.2
2017-09-05T00:11:32.280Z,77.7
2017-09-05T00:12:33.676Z,77.3
2017-09-05T00:13:55.196Z,77.3
2017-09-05T00:14:56.599Z,77.3
2017-09-05T00:16:18.096Z,77.3
2017-09-05T00:17:19.498Z,77.3
2017-09-05T00:18:40.995Z,77.1
2017-09-05T00:19:42.399Z,77.4
2017-09-05T00:21:03.918Z,77.0
2017-09-05T00:22:05.319Z,77.0
2017-09-05T00:23:26.814Z,76.6
2017-09-05T00:24:28.215Z,76.7
2017-09-05T00:25:52.737Z,76.4
2017-09-05T04:28:14.905Z,77.8
2017-09-05T04:29:16.309Z,77.5
2017-09-05T04:30:47.823Z,77.5
2017-09-05T04:31:49.226Z,77.6
2017-09-05T04:33:10.716Z,77.4
2017-09-05T04:34:12.120Z,77.2
2017-09-05T04:35:33.844Z,77.2
2017-09-05T04:36:35.292Z,77.3
2017-09-05T04:37:56.785Z,77.4
2017-09-05T04:38:58.190Z,77.0
2017-09-05T04:40:19.709Z,77.3
2017-09-05T04:41:21.112Z,77.0
2017-09-05T04:42:42.608Z,76.8
2017-09-05T04:43:44.012Z,77.5
2017-09-05T04:45:05.523Z,76.7
2017-09-05T04:46:06.930Z,77.3
2017-09-05T04:47:28.422Z,77.4
2017-09-05T04:48:29.828Z,77.5
2017-09-05T04:49:51.345Z,77.4
2017-09-05T04:50:52.746Z,77.7
2017-09-05T04:52:14.242Z,77.3
2017-09-05T04:53:15.647Z,77.4
2017-09-05T04:54:37.161Z,77.3
2017-09-05T04:55:38.565Z,77.3
2017-09-05T04:57:00.060Z,77.8
2017-09-05T04:58:01.465Z,77.8
2017-09-05T04:59:22.984Z,77.6
2017-09-05T05:00:24.396Z,77.4
2017-09-05T05:01:45.891Z,77.6
2017-09-05T05:02:47.295Z,77.6
2017-09-05T05:04:08.812Z,77.7
2017-09-05T05:05:10.217Z,77.1
2017-09-05T05:06:31.712Z,77.5
2017-09-05T05:07:33.118Z,78.3
2017-09-05T05:08:54.616Z,77.4
2017-09-05T05:09:56.018Z,77.7
2017-09-05T05:11:17.533Z,77.4
2017-09-05T05:12:18.942Z,77.2
2017-09-05T05:13:40.440Z,78.0
2017-09-05T05:14:41.845Z,78.0
2017-09-05T05:16:03.359Z,78.3
2017-09-05T05:17:04.767Z,78.2
2017-09-05T05:18:26.264Z,78.3
2017-09-05T05:19:27.671Z,78.0
2017-09-05T05:20:49.185Z,78.3
2017-09-05T05:21:50.592Z,77.3
2017-09-05T05:23:12.086Z,77.3
2017-09-05T05:24:13.493Z,77.6
2017-09-05T05:25:35.009Z,77.7
2017-09-05T05:26:36.416Z,77.9
2017-09-05T05:27:57.913Z,77.1
2017-09-05T05:28:59.321Z,77.1
2017-09-05T05:30:20.834Z,77.7
2017-09-05T05:31:22.242Z,77.5
2017-09-05T05:32:43.740Z,77.9
2017-09-05T05:33:45.146Z,78.9
2017-09-05T05:35:06.664Z,78.5
2017-09-05T05:36:08.065Z,78.3
2017-09-05T05:37:29.561Z,79.0
2017-09-05T05:38:30.965Z,78.7
2017-09-05T05:39:52.484Z,77.8
2017-09-05T05:40:53.893Z,77.7
2017-09-05T05:42:15.385Z,77.8
2017-09-05T05:43:16.790Z,77.7
2017-09-05T05:44:38.306Z,77.8
2017-09-05T05:45:39.713Z,77.6
2017-09-05T05:47:01.207Z,77.6
2017-09-05T05:48:02.613Z,77.3
2017-09-05T05:49:24.135Z,77.4
2017-09-05T05:50:25.542Z,77.6
2017-09-05T05:51:47.034Z,77.8
2017-09-05T05:52:48.442Z,78.0
2017-09-05T05:54:09.940Z,78.0
2017-09-05T05:55:11.347Z,78.9
2017-09-05T05:56:32.861Z,78.4
2017-09-05T05:57:34.270Z,78.7
2017-09-05T05:58:55.762Z,79.2
2017-09-05T05:59:57.170Z,78.4
2017-09-05T06:01:18.688Z,78.8
2017-09-05T06:02:20.095Z,79.4
2017-09-05T06:03:41.590Z,79.4
2017-09-05T06:04:42.997Z,80.1
2017-09-05T06:06:04.512Z,79.4
2017-09-05T06:07:05.923Z,79.5
2017-09-05T06:08:27.523Z,79.1
2017-09-05T06:09:28.931Z,78.9
2017-09-05T06:10:50.451Z,78.7
2017-09-05T06:11:51.859Z,78.9
2017-09-05T06:13:13.364Z,77.8
2017-09-05T06:14:14.768Z,78.7
2017-09-05T06:15:36.475Z,78.3
2017-09-05T06:16:37.881Z,78.0
2017-09-05T06:17:59.388Z,78.5
2017-09-05T06:19:00.797Z,78.7
2017-09-05T06:20:22.311Z,78.0
2017-09-05T06:21:23.723Z,78.2
2017-09-05T06:22:45.263Z,77.8
2017-09-05T06:23:46.728Z,78.6
2017-09-05T06:25:08.259Z,78.1
2017-09-05T06:26:09.663Z,78.0
2017-09-05T06:27:31.160Z,77.8
2017-09-05T06:28:32.569Z,77.4
2017-09-05T06:29:54.087Z,78.1
2017-09-05T06:30:55.497Z,77.5
2017-09-05T06:32:16.995Z,77.3
2017-09-05T06:33:18.403Z,77.4
2017-09-05T06:34:39.952Z,77.4
2017-09-05T06:35:41.362Z,77.5
2017-09-05T06:37:02.879Z,77.3
2017-09-05T06:38:04.290Z,77.7
2017-09-05T06:39:26.661Z,76.8
2017-09-05T06:40:28.066Z,77.0
2017-09-05T06:41:49.583Z,77.3
2017-09-05T06:42:50.994Z,77.2
2017-09-05T06:44:12.492Z,76.8
2017-09-05T06:45:13.898Z,76.4
2017-09-05T06:46:35.427Z,76.2
2017-09-05T06:47:36.831Z,77.1
2017-09-05T06:48:58.333Z,77.1
2017-09-05T06:49:59.742Z,77.2
2017-09-05T06:51:21.258Z,77.2
2017-09-05T06:52:22.672Z,77.2
2017-09-05T06:53:44.167Z,76.7
2017-09-05T06:54:45.579Z,76.0
2017-09-05T06:56:07.107Z,73.5
2017-09-05T06:57:08.514Z,74.1
2017-09-05T06:58:30.020Z,73.2
2017-09-05T06:59:31.427Z,72.9
2017-09-05T07:00:52.942Z,72.4
2017-09-05T07:01:54.355Z,72.6
2017-09-05T07:03:15.863Z,72.6
2017-09-05T07:04:17.275Z,72.4
2017-09-05T07:05:38.805Z,72.0
2017-09-05T07:06:40.215Z,72.2
2017-09-05T07:08:01.722Z,71.8
2017-09-05T07:09:03.131Z,71.1
2017-09-05T07:10:24.660Z,70.9
2017-09-05T07:11:26.069Z,70.4
2017-09-05T07:12:47.572Z,69.8
2017-09-05T07:13:48.981Z,69.4
2017-09-05T07:15:10.525Z,69.8
2017-09-05T07:16:11.935Z,70.5
2017-09-05T07:17:33.438Z,69.5
2017-09-05T07:18:34.847Z,68.4
2017-09-05T07:19:56.350Z,68.8
2017-09-05T07:20:57.758Z,67.8
2017-09-05T07:22:19.283Z,68.6
2017-09-05T07:23:20.698Z,67.9
2017-09-05T07:24:42.203Z,67.9
2017-09-05T07:25:43.616Z,67.2
2017-09-05T07:27:05.137Z,67.8
2017-09-05T07:28:06.549Z,68.7
2017-09-05T07:29:28.053Z,67.7
2017-09-05T07:30:29.460Z,67.2
2017-09-05T07:31:50.994Z,67.4
2017-09-05T07:32:52.406Z,67.9
2017-09-05T07:34:13.915Z,67.8
2017-09-05T07:35:15.324Z,67.8
2017-09-05T07:36:36.847Z,67.5
2017-09-05T07:37:38.258Z,67.0
2017-09-05T07:38:59.765Z,67.2
2017-09-05T07:40:01.178Z,67.0
2017-09-05T07:41:22.704Z,67.2
2017-09-05T07:42:24.116Z,66.6
2017-09-05T07:43:45.618Z,65.9
2017-09-05T07:44:47.030Z,65.3
2017-09-05T07:46:08.553Z,66.9
2017-09-05T07:47:09.965Z,66.5
2017-09-05T07:48:31.467Z,67.1
2017-09-05T07:49:32.875Z,67.3
2017-09-05T07:50:54.400Z,68.3
2017-09-05T07:51:55.812Z,67.8
2017-09-05T07:53:17.318Z,67.9
2017-09-05T07:54:18.736Z,67.5
2017-09-05T07:55:40.252Z,67.4
2017-09-05T07:56:41.671Z,68.0
2017-09-05T07:58:03.203Z,68.8
2017-09-05T07:59:04.584Z,68.8
2017-09-05T08:00:26.093Z,68.9
2017-09-05T08:01:27.507Z,68.4
2017-09-05T08:02:49.033Z,69.3
2017-09-05T08:03:50.446Z,69.5
2017-09-05T08:05:11.946Z,70.7
2017-09-05T08:06:13.358Z,71.2
2017-09-05T08:07:34.882Z,71.4
2017-09-05T08:08:36.296Z,70.2
2017-09-05T08:09:57.799Z,70.1
2017-09-05T08:10:59.209Z,69.9
2017-09-05T08:12:20.739Z,68.6
2017-09-05T08:13:22.155Z,69.0
2017-09-05T08:14:43.668Z,68.6
2017-09-05T08:15:45.080Z,68.4
2017-09-05T08:17:06.601Z,68.8
2017-09-05T08:18:08.013Z,68.5
2017-09-05T08:19:29.517Z,69.5
2017-09-05T08:21:10.411Z,70.1
2017-09-05T08:22:11.825Z,70.1
2017-09-05T08:23:33.328Z,70.6
2017-09-05T08:24:34.739Z,70.4
2017-09-05T08:25:56.260Z,70.4
2017-09-05T08:26:57.706Z,71.1
2017-09-05T08:28:19.181Z,70.8
2017-09-05T08:29:20.595Z,70.4
2017-09-05T08:30:42.100Z,69.8
2017-09-05T08:31:43.511Z,68.8
2017-09-05T08:33:05.038Z,68.1
2017-09-05T08:34:06.452Z,68.5
2017-09-05T08:35:27.960Z,67.9
2017-09-05T08:36:29.372Z,68.1
2017-09-05T08:37:50.896Z,67.6
2017-09-05T08:38:52.311Z,67.2
2017-09-05T08:40:13.818Z,66.9
2017-09-05T08:41:15.278Z,66.0
2017-09-05T08:42:36.808Z,66.0
2017-09-05T08:43:38.219Z,66.2
2017-09-05T08:44:59.767Z,67.1
2017-09-05T08:46:01.183Z,67.0
2017-09-05T08:47:22.714Z,66.8
2017-09-05T08:48:24.130Z,66.7
2017-09-05T08:49:45.655Z,66.6
2017-09-05T08:50:47.072Z,67.7
2017-09-05T08:52:08.606Z,67.2
2017-09-05T08:53:10.023Z,67.5
2017-09-05T08:54:31.542Z,67.1
2017-09-05T08:55:32.958Z,67.6
2017-09-05T08:56:54.483Z,67.9
2017-09-05T08:57:55.901Z,66.0
2017-09-05T08:59:17.405Z,65.4
2017-09-05T09:00:18.828Z,64.6
2017-09-05T09:01:40.348Z,66.3
2017-09-05T09:02:41.763Z,65.3
2017-09-05T09:04:03.268Z,66.0
2017-09-05T09:05:04.685Z,64.4
2017-09-05T09:06:26.413Z,65.9
2017-09-05T09:07:27.829Z,64.0
2017-09-05T09:08:49.471Z,63.8
2017-09-05T09:09:50.887Z,63.8
2017-09-05T09:11:12.399Z,63.4
2017-09-05T09:12:13.815Z,63.9
2017-09-05T09:13:35.363Z,64.6
2017-09-05T09:14:36.779Z,64.7
2017-09-05T09:15:58.288Z,64.8
2017-09-05T09:16:59.701Z,64.3
2017-09-05T09:18:21.227Z,63.7
2017-09-05T09:19:22.645Z,64.4
2017-09-05T09:20:44.152Z,64.9
2017-09-05T09:21:45.563Z,64.9
2017-09-05T09:23:07.088Z,64.5
2017-09-05T09:24:08.503Z,63.8
2017-09-05T09:25:30.010Z,63.1
2017-09-05T09:26:31.422Z,63.3
2017-09-05T09:27:52.950Z,63.5
2017-09-05T09:28:54.365Z,63.4
2017-09-05T09:30:15.875Z,63.7
2017-09-05T09:31:17.287Z,63.3
2017-09-05T09:32:38.814Z,64.3
2017-09-05T09:33:40.229Z,64.4
2017-09-05T09:35:01.734Z,65.6
2017-09-05T09:36:03.149Z,64.8
2017-09-05T09:37:24.677Z,64.8
2017-09-05T09:38:26.088Z,64.7
2017-09-05T09:39:47.602Z,64.0
2017-09-05T09:40:49.015Z,64.3
2017-09-05T09:42:10.541Z,63.3
2017-09-05T09:43:11.957Z,64.4
2017-09-05T09:44:33.517Z,64.7
2017-09-05T09:45:34.937Z,64.3
2017-09-05T09:46:56.468Z,64.3
2017-09-05T09:47:57.879Z,64.1
2017-09-05T09:49:19.389Z,63.6
2017-09-05T09:50:20.806Z,64.1
2017-09-05T09:51:42.333Z,63.6
2017-09-05T09:52:43.749Z,64.3
2017-09-05T09:54:05.257Z,64.6
2017-09-05T09:55:06.672Z,65.3
2017-09-05T09:56:28.181Z,65.3
2017-09-05T09:57:29.594Z,65.3
2017-09-05T09:58:51.125Z,66.3
2017-09-05T09:59:52.540Z,65.7
2017-09-05T10:01:14.051Z,65.5
2017-09-05T10:02:15.466Z,65.0
2017-09-05T10:03:37.000Z,64.9
2017-09-05T10:04:38.413Z,64.0
2017-09-05T10:05:59.988Z,64.4
2017-09-05T10:07:01.403Z,64.7
2017-09-05T10:08:22.935Z,64.6
2017-09-05T10:09:24.350Z,64.7
2017-09-05T10:10:45.859Z,65.0
2017-09-05T10:11:47.274Z,65.0
2017-09-05T10:13:08.804Z,63.8
2017-09-05T10:14:10.221Z,64.8
2017-09-05T10:15:31.734Z,63.5
2017-09-05T10:16:33.148Z,63.4
2017-09-05T10:17:54.678Z,63.9
2017-09-05T10:18:56.094Z,62.5
2017-09-05T10:20:17.605Z,62.0
2017-09-05T10:21:19.018Z,61.8
2017-09-05T10:22:40.547Z,60.8
2017-09-05T10:23:41.965Z,61.5
2017-09-05T10:25:03.475Z,63.4
2017-09-05T10:26:04.889Z,63.0
2017-09-05T10:27:26.423Z,63.5
2017-09-05T10:28:27.836Z,62.9
2017-09-05T10:29:49.347Z,64.2
2017-09-05T10:30:50.762Z,64.4
2017-09-05T10:32:12.296Z,65.8
2017-09-05T10:33:13.718Z,64.9
2017-09-05T10:34:35.235Z,64.5
2017-09-05T10:35:36.654Z,65.0
2017-09-05T10:36:58.161Z,64.6
2017-09-05T10:37:59.575Z,63.7
2017-09-05T10:39:21.104Z,63.8
2017-09-05T10:40:22.520Z,64.7
2017-09-05T10:41:44.038Z,64.0
2017-09-05T10:42:45.453Z,63.2
2017-09-05T10:44:06.987Z,62.9
2017-09-05T10:45:08.406Z,63.9
2017-09-05T10:46:29.918Z,62.8
2017-09-05T10:47:31.333Z,63.7
2017-09-05T10:48:52.861Z,60.9
2017-09-05T10:49:54.280Z,60.8
2017-09-05T10:51:15.806Z,60.4
2017-09-05T10:52:17.204Z,60.8
2017-09-05T10:53:38.736Z,60.4
2017-09-05T10:54:40.151Z,60.9
2017-09-05T10:56:01.663Z,60.9
2017-09-05T10:57:03.081Z,59.9
2017-09-05T10:58:24.617Z,60.7
2017-09-05T10:59:26.033Z,60.6
2017-09-05T11:00:47.542Z,60.7
2017-09-05T11:01:48.956Z,60.7
2017-09-05T11:03:10.490Z,60.7
2017-09-05T11:04:11.902Z,60.0
2017-09-05T11:05:33.421Z,60.7
2017-09-05T11:06:34.835Z,60.0
2017-09-05T11:07:56.362Z,59.3
2017-09-05T11:08:57.781Z,60.1
2017-09-05T11:10:19.292Z,59.6
2017-09-05T11:11:20.705Z,60.6
2017-09-05T11:12:42.233Z,59.4
2017-09-05T11:13:43.648Z,58.4
2017-09-05T11:15:05.160Z,57.7
2017-09-05T11:16:06.577Z,57.0
2017-09-05T11:17:28.082Z,57.1
2017-09-05T11:18:29.496Z,58.2
2017-09-05T11:19:51.028Z,58.9
2017-09-05T11:20:52.445Z,58.9
2017-09-05T11:22:13.965Z,58.3
2017-09-05T11:23:54.862Z,57.4
2017-09-05T11:24:56.279Z,58.2
2017-09-05T11:26:17.796Z,57.6
2017-09-05T11:27:19.214Z,57.4
2017-09-05T11:28:40.747Z,57.8
2017-09-05T11:29:42.161Z,58.6
2017-09-05T11:31:03.672Z,58.6
2017-09-05T11:32:05.088Z,58.7
2017-09-05T11:33:26.616Z,58.1
2017-09-05T11:34:28.033Z,58.0
2017-09-05T11:35:49.538Z,58.4
2017-09-05T11:36:50.954Z,58.4
2017-09-05T11:38:12.487Z,58.6
2017-09-05T11:39:13.900Z,58.5
2017-09-05T11:40:35.411Z,58.4
2017-09-05T11:41:36.828Z,58.6
2017-09-05T11:42:58.364Z,58.7
2017-09-05T11:43:59.783Z,58.7
2017-09-05T11:45:21.290Z,57.6
2017-09-05T11:46:22.708Z,57.5
2017-09-05T11:47:44.226Z,58.3
2017-09-05T11:48:45.644Z,57.3
2017-09-05T11:50:07.172Z,57.1
2017-09-05T11:51:08.591Z,56.6
2017-09-05T11:52:30.099Z,56.7
2017-09-05T11:53:31.515Z,56.8
2017-09-05T11:54:53.062Z,58.1
2017-09-05T11:55:54.474Z,58.1
2017-09-05T11:57:15.987Z,58.5
2017-09-05T11:58:17.403Z,58.1
2017-09-05T11:59:38.933Z,58.7
2017-09-05T12:00:40.355Z,60.0
2017-09-05T12:02:01.864Z,59.1
2017-09-05T12:03:03.281Z,59.1
2017-09-05T12:04:24.818Z,58.4
2017-09-05T12:05:26.233Z,56.8
2017-09-05T12:06:47.749Z,58.3
2017-09-05T12:07:49.167Z,58.3
2017-09-05T12:09:10.701Z,57.9
2017-09-05T12:10:12.115Z,57.0
2017-09-05T12:11:33.651Z,57.5
2017-09-05T12:12:35.067Z,58.2
2017-09-05T12:13:56.604Z,58.2
2017-09-05T12:14:58.018Z,58.3
2017-09-05T12:16:19.533Z,58.2
2017-09-05T12:17:20.948Z,58.0
2017-09-05T12:18:42.477Z,59.0
2017-09-05T12:19:43.895Z,58.7
2017-09-05T12:21:05.404Z,59.1
2017-09-05T12:22:06.818Z,58.7
2017-09-05T12:23:28.349Z,59.0
2017-09-05T12:24:29.770Z,59.3
2017-09-05T12:25:51.280Z,58.7
2017-09-05T12:26:52.697Z,58.6
2017-09-05T12:28:14.226Z,58.6
2017-09-05T12:29:15.645Z,59.0
2017-09-05T12:30:37.155Z,58.7
2017-09-05T12:31:38.575Z,57.5
2017-09-05T12:33:00.081Z,57.3
2017-09-05T12:34:01.495Z,58.2
2017-09-05T12:35:23.025Z,56.5
2017-09-05T12:36:24.449Z,56.9
2017-09-05T12:37:45.955Z,56.6
2017-09-05T12:38:47.373Z,55.4
2017-09-05T12:40:08.907Z,56.3
2017-09-05T12:41:10.329Z,55.5
2017-09-05T12:42:31.842Z,55.6
2017-09-05T12:43:33.260Z,55.3
2017-09-05T12:44:54.793Z,54.8
2017-09-05T12:45:56.212Z,54.3
2017-09-05T12:47:17.736Z,53.7
2017-09-05T12:48:19.143Z,54.1
2017-09-05T12:49:40.683Z,54.2
2017-09-05T12:50:42.095Z,55.4
2017-09-05T12:52:03.608Z,54.5
2017-09-05T12:53:05.023Z,54.2
2017-09-05T12:54:26.559Z,54.4
2017-09-05T12:55:27.977Z,55.3
2017-09-05T12:56:49.495Z,55.6
2017-09-05T12:57:50.909Z,55.3
2017-09-05T12:59:12.443Z,56.0
2017-09-05T13:00:13.863Z,55.5
2017-09-05T13:01:35.375Z,55.4
2017-09-05T13:02:36.797Z,55.3
2017-09-05T13:03:58.328Z,55.0
2017-09-05T13:04:59.744Z,55.7
2017-09-05T13:06:21.254Z,56.1
2017-09-05T13:07:22.673Z,56.2
2017-09-05T13:08:44.202Z,54.7
2017-09-05T13:09:45.626Z,57.0
2017-09-05T13:11:07.140Z,56.5
2017-09-05T13:12:08.555Z,56.6
2017-09-05T13:13:30.066Z,57.3
2017-09-05T13:14:31.483Z,56.9
2017-09-05T13:15:53.017Z,56.8
2017-09-05T13:16:54.433Z,57.3
2017-09-05T13:18:15.950Z,57.2
2017-09-05T13:19:17.361Z,57.6
2017-09-05T13:20:38.894Z,58.2
2017-09-05T13:21:40.309Z,57.5
2017-09-05T13:23:01.820Z,58.4
2017-09-05T13:24:03.234Z,57.8
2017-09-05T13:25:24.759Z,58.6
2017-09-05T13:26:26.177Z,57.9
2017-09-05T13:27:47.692Z,58.6
2017-09-05T13:28:49.103Z,59.4
2017-09-05T13:30:10.630Z,60.0
2017-09-05T13:31:12.044Z,60.8
2017-09-05T13:32:33.559Z,60.6
2017-09-05T13:33:34.970Z,61.2
2017-09-05T13:34:56.497Z,62.5
2017-09-05T13:35:57.915Z,62.6
2017-09-05T13:37:19.426Z,63.8
2017-09-05T13:38:20.841Z,64.6
2017-09-05T13:39:42.374Z,65.1
2017-09-05T13:40:43.787Z,65.3
2017-09-05T13:42:05.300Z,66.2
2017-09-05T13:43:06.712Z,65.1
2017-09-05T13:44:28.237Z,64.8
2017-09-05T13:45:29.652Z,63.8
2017-09-05T13:46:51.162Z,64.3
2017-09-05T13:47:52.575Z,64.5
2017-09-05T13:49:14.100Z,64.7
2017-09-05T13:50:15.516Z,64.8
2017-09-05T13:51:37.022Z,64.6
2017-09-05T13:52:38.710Z,63.6
2017-09-05T13:54:00.261Z,63.5
2017-09-05T13:55:01.675Z,62.7
2017-09-05T13:56:23.249Z,63.6
2017-09-05T13:57:24.663Z,63.8
2017-09-05T13:58:46.172Z,62.8
2017-09-05T13:59:47.588Z,62.8
2017-09-05T14:01:09.117Z,62.6
2017-09-05T14:02:10.539Z,62.2
2017-09-05T14:03:32.075Z,62.1
2017-09-05T14:04:33.533Z,62.2
2017-09-05T14:05:55.109Z,62.8
2017-09-05T14:06:56.535Z,62.4
2017-09-05T14:08:18.079Z,61.8
2017-09-05T14:09:19.521Z,61.6
2017-09-05T14:10:41.169Z,61.3
2017-09-05T14:11:42.602Z,61.5
2017-09-05T14:13:04.136Z,61.4
2017-09-05T14:14:05.582Z,61.0
2017-09-05T14:15:27.248Z,61.7
2017-09-05T14:16:28.696Z,62.2
2017-09-05T14:17:50.245Z,62.3
2017-09-05T14:18:51.941Z,62.8
2017-09-05T14:20:13.983Z,63.4
2017-09-05T14:21:15.509Z,63.2
2017-09-05T14:22:37.357Z,63.8
2017-09-05T14:23:39.889Z,64.0
2017-09-05T14:25:01.903Z,63.8
2017-09-05T14:26:03.317Z,64.6
2017-09-05T14:27:24.825Z,64.4
2017-09-05T14:28:26.241Z,65.6
2017-09-05T14:29:47.773Z,65.4
2017-09-05T14:30:49.187Z,65.0
2017-09-05T14:32:10.700Z,64.8
2017-09-05T14:33:12.111Z,65.0
2017-09-05T14:34:33.638Z,64.5
2017-09-05T14:35:35.055Z,64.7
2017-09-05T14:36:56.633Z,64.5
2017-09-05T14:37:58.054Z,65.7
2017-09-05T14:39:19.656Z,66.4
2017-09-05T14:40:21.145Z,65.8
2017-09-05T14:41:42.675Z,64.8
2017-09-05T14:42:44.121Z,64.8
2017-09-05T14:44:05.624Z,64.8
2017-09-05T14:45:07.073Z,65.2
2017-09-05T14:46:28.602Z,64.5
2017-09-05T14:47:30.014Z,64.5
2017-09-05T14:48:51.553Z,64.7
2017-09-05T14:49:52.974Z,65.0
2017-09-05T14:51:14.502Z,65.7
2017-09-05T14:52:15.916Z,66.4
2017-09-05T14:53:37.431Z,67.4
2017-09-05T14:54:38.854Z,67.3
2017-09-05T14:56:00.378Z,67.3
2017-09-05T14:57:01.843Z,66.8
2017-09-05T14:58:23.432Z,67.4
2017-09-05T14:59:24.854Z,67.3
2017-09-05T15:00:46.905Z,67.3
2017-09-05T15:01:48.315Z,66.1
2017-09-05T15:03:09.832Z,66.6
2017-09-05T15:04:11.248Z,66.9
2017-09-05T15:05:32.780Z,67.5
2017-09-05T15:06:34.200Z,67.3
2017-09-05T15:07:55.765Z,66.4
2017-09-05T15:08:57.153Z,66.4
2017-09-05T15:10:18.713Z,66.8
2017-09-05T15:11:20.128Z,67.4
2017-09-05T15:12:41.637Z,67.3
2017-09-05T15:13:43.049Z,67.2
2017-09-05T15:15:04.578Z,68.0
2017-09-05T15:16:06.042Z,67.4
2017-09-05T15:17:27.551Z,67.3
2017-09-05T15:18:28.964Z,67.4
2017-09-05T15:19:50.535Z,67.1
2017-09-05T15:20:51.949Z,66.7
2017-09-05T15:22:13.474Z,67.9
2017-09-05T15:23:14.915Z,67.1
2017-09-05T15:24:36.917Z,66.6
2017-09-05T15:25:38.332Z,67.6
2017-09-05T15:26:59.884Z,67.8
2017-09-05T15:28:01.304Z,67.7
2017-09-05T15:29:22.815Z,67.6
2017-09-05T15:30:24.237Z,68.0
2017-09-05T15:31:45.764Z,68.0
2017-09-05T15:32:47.181Z,68.0
2017-09-05T15:34:08.693Z,67.7
2017-09-05T15:35:10.107Z,68.3
2017-09-05T15:36:31.642Z,68.0
2017-09-05T15:37:33.057Z,67.8
2017-09-05T15:38:54.575Z,67.8
2017-09-05T15:40:35.477Z,67.3
2017-09-05T15:42:16.525Z,68.1
2017-09-05T15:43:17.936Z,68.2
2017-09-05T15:44:39.617Z,67.6
2017-09-05T15:45:41.343Z,68.3
2017-09-05T15:47:04.546Z,69.1
2017-09-05T15:48:05.963Z,69.0
2017-09-05T15:49:27.488Z,69.3
2017-09-05T15:50:28.899Z,69.7
2017-09-05T15:51:50.454Z,69.5
2017-09-05T15:52:51.876Z,69.6
2017-09-05T15:54:13.654Z,69.4
2017-09-05T15:55:15.220Z,69.4
2017-09-05T15:56:36.805Z,69.1
2017-09-05T15:57:38.217Z,69.2
2017-09-05T15:58:59.934Z,68.8
2017-09-05T16:00:01.379Z,68.8
2017-09-05T16:01:22.972Z,68.5
2017-09-05T16:02:24.388Z,68.9
2017-09-05T16:03:46.417Z,69.0
2017-09-05T16:04:47.832Z,68.8
2017-09-05T16:06:09.387Z,69.4
2017-09-05T16:07:10.803Z,69.8
2017-09-05T16:08:32.421Z,68.8
2017-09-05T16:09:33.835Z,68.8
2017-09-05T16:10:55.393Z,70.0
2017-09-05T16:11:56.807Z,69.4
2017-09-05T16:13:18.426Z,69.8
2017-09-05T16:14:19.838Z,70.0
2017-09-05T16:15:41.395Z,70.3
2017-09-05T16:16:42.809Z,70.4
2017-09-05T16:18:04.426Z,70.3
2017-09-05T16:19:06.146Z,70.6
2017-09-05T16:20:27.740Z,69.9
2017-09-05T16:21:29.231Z,69.4
2017-09-05T16:22:50.842Z,69.3
2017-09-05T16:23:52.257Z,70.3
2017-09-05T16:25:13.795Z,69.3
2017-09-05T16:26:15.215Z,70.1
2017-09-05T16:27:36.762Z,69.3
2017-09-05T16:28:38.176Z,69.5
2017-09-05T16:29:59.857Z,69.6
2017-09-05T16:31:01.341Z,70.3
2017-09-05T16:32:23.000Z,70.0
2017-09-05T16:33:24.407Z,70.2
2017-09-05T16:34:46.010Z,70.0
2017-09-05T16:35:47.426Z,69.9
2017-09-05T16:37:09.062Z,68.8
2017-09-05T16:38:10.515Z,68.8
2017-09-05T16:39:32.135Z,69.0
2017-09-05T16:40:33.654Z,69.0
2017-09-05T16:41:55.289Z,68.8
2017-09-05T16:42:56.773Z,68.6
2017-09-05T16:44:18.324Z,68.4
2017-09-05T16:45:19.738Z,68.0
2017-09-05T16:46:41.291Z,67.6
2017-09-05T16:47:42.707Z,67.6
2017-09-05T16:49:05.028Z,67.7
2017-09-05T16:50:06.429Z,68.0
2017-09-05T16:51:28.062Z,67.2
2017-09-05T16:52:29.514Z,67.2
2017-09-05T16:53:51.588Z,68.0
2017-09-05T16:54:53.151Z,68.1
2017-09-05T16:56:14.810Z,67.7
2017-09-05T16:57:16.356Z,68.1
2017-09-05T16:58:39.643Z,68.2
2017-09-05T16:59:41.063Z,68.4
2017-09-05T17:01:02.697Z,67.9
2017-09-05T17:02:04.113Z,68.1
2017-09-05T17:03:25.761Z,69.1
2017-09-05T17:04:27.220Z,69.1
2017-09-05T17:05:48.874Z,69.1
2017-09-05T17:06:50.287Z,69.0
2017-09-05T17:08:11.836Z,69.3
2017-09-05T17:09:13.283Z,69.1
2017-09-05T17:10:34.877Z,68.9
2017-09-05T17:11:36.287Z,69.1
2017-09-05T17:12:57.846Z,69.1
2017-09-05T17:13:59.293Z,68.7
2017-09-05T17:15:21.390Z,70.0
2017-09-05T17:16:22.805Z,69.8
2017-09-05T17:17:49.380Z,70.3
2017-09-05T17:18:50.796Z,70.6
2017-09-05T17:20:13.846Z,71.0
2017-09-05T17:21:15.262Z,71.3
2017-09-05T17:22:36.814Z,70.7
2017-09-05T17:23:38.227Z,71.0
2017-09-05T17:25:01.282Z,71.6
2017-09-05T17:26:02.697Z,71.5
2017-09-05T17:27:24.254Z,71.7
2017-09-05T17:28:25.666Z,72.2
2017-09-05T17:29:47.184Z,71.9
2017-09-05T17:30:48.596Z,72.1
2017-09-05T17:32:10.157Z,72.0
2017-09-05T17:33:11.564Z,72.3
2017-09-05T17:34:33.598Z,72.2
2017-09-05T17:35:35.011Z,72.7
2017-09-05T17:36:57.078Z,72.9
2017-09-05T17:37:58.487Z,72.9
2017-09-05T17:39:20.013Z,72.7
2017-09-05T17:40:21.428Z,72.8
2017-09-05T17:41:42.977Z,72.8
2017-09-05T17:42:44.390Z,72.8
2017-09-05T17:44:06.423Z,73.0
2017-09-05T17:45:07.879Z,72.6
2017-09-05T17:46:30.020Z,72.6
2017-09-05T17:47:31.428Z,73.0
2017-09-05T17:48:53.044Z,72.5
2017-09-05T17:49:54.505Z,72.9
2017-09-05T17:51:16.720Z,73.0
2017-09-05T17:52:18.154Z,73.2
2017-09-05T17:53:40.209Z,73.1
2017-09-05T17:54:41.619Z,73.4
2017-09-05T17:56:03.226Z,73.3
2017-09-05T17:57:04.635Z,73.6
2017-09-05T17:58:26.201Z,74.0
2017-09-05T17:59:27.615Z,74.3
2017-09-05T18:00:49.637Z,74.6
2017-09-05T18:01:51.048Z,74.1
2017-09-05T18:03:12.608Z,74.7
2017-09-05T18:04:14.018Z,74.9
2017-09-05T18:05:36.048Z,74.8
2017-09-05T18:06:37.459Z,74.7
2017-09-05T18:07:59.024Z,74.8
2017-09-05T18:09:00.436Z,74.9
2017-09-05T18:10:22.481Z,74.6
2017-09-05T18:11:23.889Z,75.0
2017-09-05T18:12:45.437Z,74.8
2017-09-05T18:13:46.842Z,75.0
2017-09-05T18:15:08.365Z,74.9
2017-09-05T18:16:09.777Z,74.3
2017-09-05T18:17:32.870Z,74.8
2017-09-05T18:18:34.278Z,74.3
2017-09-05T18:19:55.800Z,75.0
2017-09-05T18:20:57.218Z,74.8
2017-09-05T18:22:18.772Z,74.8
2017-09-05T18:23:20.183Z,74.6
2017-09-05T18:24:41.704Z,74.7
2017-09-05T18:25:43.114Z,74.8
2017-09-05T18:27:04.673Z,74.9
2017-09-05T18:28:06.081Z,75.0
2017-09-05T18:29:27.607Z,75.1
2017-09-05T18:30:29.017Z,74.9
2017-09-05T18:31:51.093Z,74.6
2017-09-05T18:32:52.499Z,74.9
2017-09-05T18:34:14.530Z,75.0
2017-09-05T18:35:15.937Z,75.1
2017-09-05T18:36:37.482Z,75.3
2017-09-05T18:37:38.888Z,75.2
2017-09-05T18:39:00.454Z,75.1
2017-09-05T18:40:01.863Z,76.1
2017-09-05T18:41:23.384Z,75.6
2017-09-05T18:42:24.794Z,75.9
2017-09-05T18:43:46.356Z,75.6
2017-09-05T18:44:47.765Z,75.9
2017-09-05T18:46:09.374Z,76.0
2017-09-05T18:47:10.822Z,76.1
2017-09-05T18:48:32.468Z,75.7
2017-09-05T18:49:33.874Z,76.2
2017-09-05T18:50:55.477Z,75.8
2017-09-05T18:51:56.905Z,76.0
2017-09-05T18:53:19.056Z,76.0
2017-09-05T18:54:20.526Z,76.1
2017-09-05T18:55:42.116Z,75.8
2017-09-05T18:56:43.519Z,75.3
2017-09-05T18:58:05.084Z,75.5
2017-09-05T18:59:06.494Z,76.1
2017-09-05T19:00:28.525Z,76.1
2017-09-05T19:01:29.936Z,75.1
2017-09-05T19:02:51.495Z,75.1
2017-09-05T19:03:52.903Z,75.1
2017-09-05T19:05:14.940Z,74.9
2017-09-05T19:06:16.348Z,75.3
2017-09-05T19:07:37.909Z,75.5
2017-09-05T19:08:39.353Z,76.1
2017-09-05T19:10:00.954Z,76.5
2017-09-05T19:11:02.485Z,76.7
2017-09-05T19:12:24.154Z,75.7
2017-09-05T19:13:25.566Z,76.0
2017-09-05T19:14:47.666Z,75.7
2017-09-05T19:15:49.138Z,75.9
2017-09-05T19:17:10.762Z,75.6
2017-09-05T19:18:12.166Z,75.9
2017-09-05T19:19:33.835Z,75.5
2017-09-05T19:21:24.714Z,76.0
2017-09-05T19:23:05.611Z,75.7
2017-09-05T19:24:07.018Z,75.1
2017-09-05T19:25:28.592Z,75.7
2017-09-05T19:26:30.040Z,75.7
2017-09-05T19:27:51.568Z,76.0
2017-09-05T19:28:52.976Z,76.0
2017-09-05T19:30:14.477Z,75.7
2017-09-05T19:31:15.962Z,75.3
2017-09-05T19:32:37.549Z,75.6
2017-09-05T19:33:38.963Z,75.8
2017-09-05T19:35:00.564Z,76.0
2017-09-05T19:36:01.973Z,75.9
2017-09-05T19:37:23.592Z,75.7
2017-09-05T19:38:25.003Z,76.0
2017-09-05T19:39:46.509Z,75.7
2017-09-05T19:40:47.918Z,75.8
2017-09-05T19:42:09.431Z,75.7
2017-09-05T19:43:10.838Z,76.2
2017-09-05T19:44:32.366Z,75.6
2017-09-05T19:45:33.822Z,75.7
2017-09-05T19:46:55.335Z,76.0
2017-09-05T19:47:56.743Z,75.3
2017-09-05T19:49:18.261Z,74.9
2017-09-05T19:50:19.677Z,75.0
2017-09-05T19:51:41.176Z,75.1
2017-09-05T19:52:42.580Z,75.2
2017-09-05T19:54:04.462Z,74.8
2017-09-05T19:55:06.116Z,74.6
2017-09-05T19:56:27.610Z,74.3